Trabzon — 9HA2783 — position and weather

sailwx.info

Track history (hours):
 
Tides and Currents Weather Stations Pressure Air Temp Water Temp Dewpoint Dewpoint Depression Visibility Wind Speed Wind Dir Waves Ship Positions

Trabzon

Last reported at 2014-Oct-24 10:33 UTC. Time now 2014-Oct-24 14:48 UTC.
Position N 52°27' E 003°49'.

Length 229 m; draft 14.5 m.

Type: Cargo ship. MMSI: 215679000.

Date/timePositionNaut miles runAvg speedWind from/ knotsBaromVisibWave heightAir tempDewpointWater temp
2014-Oct-24 10:33N 52°27' E 003°49'0 0.1
2014-Oct-24 09:30N 52°27' E 003°49'0 0.0
2014-Oct-24 01:33N 52°27' E 003°49'0 0.0
2014-Oct-24 00:33N 52°27' E 003°49'0 0.0
2014-Oct-23 23:33N 52°27' E 003°49'0 0.0
2014-Oct-23 08:30N 52°27' E 003°49'0 0.0
2014-Oct-23 07:27N 52°27' E 003°49'0 0.2
2014-Oct-23 06:33N 52°27' E 003°49'0 0.1
2014-Oct-23 05:30N 52°27' E 003°49'0 0.0
2014-Oct-23 00:27N 52°27' E 003°49'0 0.0
2014-Oct-22 18:03N 52°27' E 003°49'0 0.0
2014-Oct-22 01:33N 52°27' E 003°49'0 0.0
2014-Oct-22 00:31N 52°27' E 003°49'1 0.9
2014-Oct-21 23:11N 52°26' E 003°51'1 0.5
2014-Oct-21 20:27N 52°27' E 003°49'0 0.1
2014-Oct-21 19:27N 52°27' E 003°49'0 0.1
2014-Oct-21 18:09N 52°27' E 003°49'0 0.1
2014-Oct-21 17:33N 52°27' E 003°49'0 0.0
2014-Oct-21 16:33N 52°27' E 003°49'0 0.0
2014-Oct-21 15:30N 52°27' E 003°49'0 0.0
2014-Oct-21 04:19N 52°27' E 003°49'2 3.1
2014-Oct-21 03:33N 52°26' E 003°45'3012.4
2014-Oct-21 01:06N 52°07' E 003°07'713.0
2014-Oct-21 00:32N 52°02' E 002°59'1313.1
2014-Oct-20 23:32N 51°52' E 002°45'1713.1
2014-Oct-20 22:16N 51°39' E 002°27'912.7
2014-Oct-20 21:33N 51°32' E 002°18'1211.7
2014-Oct-20 20:33N 51°22' E 002°08'1010.0
2014-Oct-20 19:33N 51°13' E 002°02'1110.9
2014-Oct-20 18:33N 51°07' E 001°47'1010.2
2014-Oct-20 17:33N 51°00' E 001°36'10 9.6
2014-Oct-20 16:30N 50°52' E 001°26'1010.1
2014-Oct-20 15:33N 50°43' E 001°21'  
Track history (hours):
 
Tides and Currents Weather Stations Pressure Air Temp Water Temp Dewpoint Dewpoint Depression Visibility Wind Speed Wind Dir Waves Ship Positions

Trabzon

Last reported at 2014-Oct-24 10:33 UTC. Time now 2014-Oct-24 14:48 UTC.
Position N 52°27' E 003°49'.

Length 229 m; draft 14.5 m.

Type: Cargo ship. MMSI: 215679000.

Date/timePositionNaut miles runAvg speedWind from/ knotsBaromVisibWave heightAir tempDewpointWater temp
2014-Oct-24 10:33N 52°27' E 003°49'0 0.1
2014-Oct-24 09:30N 52°27' E 003°49'0 0.0
2014-Oct-24 01:33N 52°27' E 003°49'0 0.0
2014-Oct-24 00:33N 52°27' E 003°49'0 0.0
2014-Oct-23 23:33N 52°27' E 003°49'0 0.0
2014-Oct-23 08:30N 52°27' E 003°49'0 0.0
2014-Oct-23 07:27N 52°27' E 003°49'0 0.2
2014-Oct-23 06:33N 52°27' E 003°49'0 0.1
2014-Oct-23 05:30N 52°27' E 003°49'0 0.0
2014-Oct-23 00:27N 52°27' E 003°49'0 0.0
2014-Oct-22 18:03N 52°27' E 003°49'0 0.0
2014-Oct-22 01:33N 52°27' E 003°49'0 0.0
2014-Oct-22 00:31N 52°27' E 003°49'1 0.9
2014-Oct-21 23:11N 52°26' E 003°51'1 0.5
2014-Oct-21 20:27N 52°27' E 003°49'0 0.1
2014-Oct-21 19:27N 52°27' E 003°49'0 0.1
2014-Oct-21 18:09N 52°27' E 003°49'0 0.1
2014-Oct-21 17:33N 52°27' E 003°49'0 0.0
2014-Oct-21 16:33N 52°27' E 003°49'0 0.0
2014-Oct-21 15:30N 52°27' E 003°49'0 0.0
2014-Oct-21 04:19N 52°27' E 003°49'2 3.1
2014-Oct-21 03:33N 52°26' E 003°45'3012.4
2014-Oct-21 01:06N 52°07' E 003°07'713.0
2014-Oct-21 00:32N 52°02' E 002°59'1313.1
2014-Oct-20 23:32N 51°52' E 002°45'1713.1
2014-Oct-20 22:16N 51°39' E 002°27'912.7
2014-Oct-20 21:33N 51°32' E 002°18'1211.7
2014-Oct-20 20:33N 51°22' E 002°08'1010.0
2014-Oct-20 19:33N 51°13' E 002°02'1110.9
2014-Oct-20 18:33N 51°07' E 001°47'1010.2
2014-Oct-20 17:33N 51°00' E 001°36'10 9.6
2014-Oct-20 16:30N 50°52' E 001°26'1010.1
2014-Oct-20 15:33N 50°43' E 001°21'  

Dump ship's entire track history